Terminal Aerodrome Forecast
Issued by NWS Twin Cities, MN

Home | Current Version | Previous Version | Text Only | Print | Product List | Glossary On
Versions: 1 2 3 4 5 6 7 8 9 10 11 12 13 14 15
000
FTUS43 KMPX 171700 RRA
TAFSTC
TAF
KSTC 171743Z 1718/1818 06004KT 4SM BR VCSH OVC005
     FM172000 12004KT 6SM BR OVC008
     FM180800 17002KT 2SM BR OVC004
     FM181400 21005KT 5SM BR OVC009
      TEMPO 1814/1818 2SM TSRA BKN012CB OVC020=

USA.gov is the U.S. government's official web portal to all federal, state and local government web resources and services.